Time;durP1;ratioP1;P1;durP2;ratioP2;P2;SDS_P1;SDS_P2;PMS_P1;PMS_P2;Temp;Humidity;BMP_temperature;BMP_pressure;BME280_temperature;BME280_humidity;BME280_pressure;Samples;Min_cycle;Max_cycle;Signal;HPM_P1;HPM_P2
2021/10/05 00:06:47;;;;;;;24.50;16.05;;;;;;;13.97;100.00;100679.45;712189;1203;114897;-77
2021/10/05 00:21:51;;;;;;;24.90;15.43;;;;;;;13.75;100.00;100699.98;712395;1181;115006;-77
2021/10/05 00:36:53;;;;;;;24.17;15.37;;;;;;;13.71;100.00;100693.34;712480;1179;114515;-77
2021/10/05 00:51:56;;;;;;;27.43;18.00;;;;;;;13.65;100.00;100694.73;712475;1179;116424;-77
2021/10/05 01:07:04;;;;;;;27.33;19.43;;;;;;;13.56;100.00;100689.51;712684;1203;116106;-77
2021/10/05 01:22:06;;;;;;;24.65;15.55;;;;;;;13.36;100.00;100681.67;712915;1183;114552;-77
2021/10/05 01:37:08;;;;;;;24.93;18.60;;;;;;;13.12;100.00;100669.78;712643;1202;115369;-77
2021/10/05 01:52:10;;;;;;;24.45;14.70;;;;;;;12.81;100.00;100654.19;712456;1202;115006;-76
2021/10/05 02:07:14;;;;;;;19.95;12.83;;;;;;;12.75;100.00;100651.29;712555;1202;115437;-77
2021/10/05 02:22:16;;;;;;;19.27;12.63;;;;;;;12.59;100.00;100657.94;712872;1202;114630;-77
2021/10/05 02:37:18;;;;;;;19.33;12.37;;;;;;;12.52;100.00;100642.84;712406;1179;114631;-78
2021/10/05 02:52:22;;;;;;;20.33;11.98;;;;;;;12.58;100.00;100634.41;713063;1205;114781;-77
2021/10/05 03:07:24;;;;;;;30.50;16.45;;;;;;;12.44;100.00;100625.94;712946;1206;116161;-84
2021/10/05 03:22:26;;;;;;;29.83;19.55;;;;;;;12.37;100.00;100632.73;713424;1203;115777;-72
2021/10/05 03:37:28;;;;;;;28.70;18.17;;;;;;;12.24;100.00;100609.33;716281;1203;115039;-71
2021/10/05 03:52:31;;;;;;;36.10;20.10;;;;;;;12.07;100.00;100594.24;712734;1177;114508;-71
2021/10/05 04:07:33;;;;;;;28.50;16.00;;;;;;;12.11;100.00;100611.41;712980;1203;114982;-71
2021/10/05 04:22:35;;;;;;;24.93;12.60;;;;;;;12.00;100.00;100609.73;712833;1202;115672;-72
2021/10/05 04:37:37;;;;;;;19.60;10.97;;;;;;;11.90;100.00;100609.67;712554;1203;115829;-71
2021/10/05 04:52:40;;;;;;;23.80;14.00;;;;;;;11.81;100.00;100613.97;712779;1203;115492;-70
2021/10/05 05:07:47;;;;;;;29.65;14.50;;;;;;;11.76;100.00;100602.20;712692;1206;114596;-72
2021/10/05 05:22:49;;;;;;;26.85;15.93;;;;;;;11.69;100.00;100588.75;712367;1202;116149;-71
2021/10/05 05:37:51;;;;;;;28.28;15.23;;;;;;;11.64;100.00;100575.20;712462;1205;115879;-71
2021/10/05 05:52:54;;;;;;;30.03;15.15;;;;;;;11.86;100.00;100589.06;712560;1202;115269;-71
2021/10/05 06:07:56;;;;;;;24.10;13.40;;;;;;;12.13;100.00;100606.85;712692;1202;116053;-73
2021/10/05 06:22:59;;;;;;;24.25;13.70;;;;;;;12.73;100.00;100601.39;712564;1205;116200;-72
2021/10/05 06:38:02;;;;;;;26.97;13.80;;;;;;;13.38;100.00;100598.05;712490;1203;115604;-71
2021/10/05 06:53:05;;;;;;;27.75;12.98;;;;;;;14.01;100.00;100574.48;712603;1202;114588;-71
2021/10/05 07:08:09;;;;;;;22.30;12.75;;;;;;;14.66;100.00;100574.20;712700;1203;115598;-74
2021/10/05 07:23:11;;;;;;;20.13;12.50;;;;;;;15.13;100.00;100538.64;712959;1203;115901;-71
2021/10/05 07:38:14;;;;;;;19.60;12.80;;;;;;;15.50;100.00;100523.41;712529;1181;114501;-80
2021/10/05 07:53:16;;;;;;;21.60;12.18;;;;;;;16.25;100.00;100543.69;712819;1209;114555;-82
2021/10/05 08:08:19;;;;;;;17.47;11.00;;;;;;;16.64;99.63;100529.72;712708;1202;115169;-81
2021/10/05 08:23:21;;;;;;;17.13;11.63;;;;;;;17.14;95.60;100501.27;712868;1181;114768;-76
2021/10/05 08:38:24;;;;;;;26.80;12.70;;;;;;;17.58;93.03;100499.88;712588;1203;115517;-76
2021/10/05 08:53:28;;;;;;;17.20;10.63;;;;;;;18.15;89.46;100481.89;712527;1202;114381;-74
2021/10/05 09:08:32;;;;;;;24.35;14.05;;;;;;;18.32;87.75;100479.88;712872;1203;115720;-74
2021/10/05 09:23:35;;;;;;;21.13;10.98;;;;;;;19.16;85.53;100455.65;712672;1203;114490;-75
2021/10/05 09:38:37;;;;;;;18.20;11.45;;;;;;;19.83;83.13;100451.02;712693;1203;114550;-74
2021/10/05 09:53:39;;;;;;;18.43;10.23;;;;;;;20.04;80.92;100442.16;713524;1203;115407;-80
2021/10/05 10:08:45;;;;;;;19.83;11.90;;;;;;;20.35;78.29;100424.13;715568;1203;115512;-81
2021/10/05 10:23:47;;;;;;;20.47;10.07;;;;;;;20.62;76.48;100423.23;713994;1202;115701;-80
2021/10/05 10:38:50;;;;;;;20.00;10.35;;;;;;;20.92;74.91;100427.51;716026;1202;114676;-79
2021/10/05 10:53:54;;;;;;;16.23;10.17;;;;;;;21.58;74.60;100394.00;722002;1180;115657;-79
2021/10/05 11:08:59;;;;;;;17.87;10.80;;;;;;;21.66;73.04;100367.09;714590;1203;114743;-80
2021/10/05 11:24:02;;;;;;;14.25;9.35;;;;;;;22.31;71.86;100350.31;714367;1203;115207;-80
2021/10/05 11:39:07;;;;;;;18.55;9.70;;;;;;;22.28;70.46;100310.67;713075;1202;114902;-79
2021/10/05 11:54:41;;;;;;;16.33;9.68;;;;;;;22.81;71.00;100314.94;712732;1203;115044;-78
2021/10/05 12:09:49;;;;;;;17.87;10.30;;;;;;;23.37;69.79;100286.56;712855;1203;114281;-79
2021/10/05 12:24:56;;;;;;;17.83;9.33;;;;;;;23.35;68.15;100277.92;713254;1202;114605;-80
2021/10/05 12:40:04;;;;;;;22.10;8.07;;;;;;;23.76;66.41;100251.57;714766;1202;114223;-80
2021/10/05 12:55:06;;;;;;;14.45;8.45;;;;;;;24.19;65.65;100231.08;715472;1202;114932;-79
2021/10/05 13:10:10;;;;;;;16.38;8.60;;;;;;;24.07;64.38;100209.59;713134;1181;115154;-79
2021/10/05 13:25:13;;;;;;;17.93;9.87;;;;;;;28.44;61.59;100209.80;717403;1205;115495;-74
2021/10/05 13:40:15;;;;;;;15.05;8.40;;;;;;;29.46;53.02;100179.23;713912;1202;115432;-85
2021/10/05 13:55:18;;;;;;;9.80;6.00;;;;;;;30.69;50.76;100165.13;715401;1196;114536;-87
2021/10/05 14:10:21;;;;;;;12.77;8.40;;;;;;;30.48;49.13;100161.63;715363;1205;114452;-85
2021/10/05 14:25:23;;;;;;;16.83;8.90;;;;;;;29.86;49.66;100156.92;714921;1202;115035;-88
2021/10/05 14:40:26;;;;;;;15.97;7.50;;;;;;;28.60;50.08;100151.38;714777;1202;114680;-84
2021/10/05 14:55:28;;;;;;;13.45;7.85;;;;;;;27.55;51.19;100153.34;715622;1203;114855;-84
2021/10/05 15:10:30;;;;;;;16.03;7.13;;;;;;;23.38;59.06;100135.63;715931;1203;115225;-83
2021/10/05 15:25:33;;;;;;;18.30;8.33;;;;;;;22.33;63.44;100118.48;716563;1204;114207;-83
2021/10/05 15:40:37;;;;;;;27.90;20.70;;;;;;;22.81;62.58;100119.75;713803;1202;115283;-74
2021/10/05 15:55:41;;;;;;;16.80;9.70;;;;;;;20.92;67.38;100142.24;712967;1202;114682;-79
2021/10/05 16:10:43;;;;;;;20.03;12.50;;;;;;;19.77;71.75;100149.19;713059;1203;115774;-80
2021/10/05 16:25:46;;;;;;;35.35;20.63;;;;;;;19.39;74.83;100160.27;713993;1206;114917;-74
2021/10/05 16:40:48;;;;;;;17.83;10.13;;;;;;;19.15;75.75;100174.02;713974;1178;115024;-73
2021/10/05 16:55:50;;;;;;;18.57;13.03;;;;;;;18.84;78.58;100178.67;713282;1203;115599;-76
2021/10/05 17:10:53;;;;;;;23.10;12.80;;;;;;;18.72;79.34;100186.34;713062;1179;114374;-75
2021/10/05 17:25:55;;;;;;;13.67;9.13;;;;;;;18.53;80.48;100166.57;713075;1202;114540;-75
2021/10/05 17:40:57;;;;;;;19.73;9.80;;;;;;;18.25;81.32;100148.73;713114;1206;114953;-74
2021/10/05 17:55:59;;;;;;;21.33;11.07;;;;;;;18.03;82.16;100155.85;712947;1204;114601;-74
2021/10/05 18:11:02;;;;;;;15.63;8.45;;;;;;;17.91;81.95;100152.83;713110;1180;114369;-75
2021/10/05 18:26:05;;;;;;;9.95;6.50;;;;;;;17.75;81.82;100147.72;712906;1202;114987;-74
2021/10/05 18:41:07;;;;;;;13.10;7.80;;;;;;;17.69;81.49;100175.83;713238;1203;114917;-74
2021/10/05 18:56:11;;;;;;;23.20;7.73;;;;;;;17.65;80.75;100189.66;714154;1181;114229;-72
2021/10/05 19:11:13;;;;;;;24.05;10.35;;;;;;;17.60;80.95;100182.23;713736;1202;114656;-72
2021/10/05 19:26:18;;;;;;;15.80;6.95;;;;;;;17.54;79.92;100164.39;713823;1202;114524;-73
2021/10/05 19:41:20;;;;;;;17.30;8.03;;;;;;;17.39;79.50;100191.73;714059;1196;114383;-73
2021/10/05 19:56:22;;;;;;;20.60;7.98;;;;;;;17.39;78.86;100180.31;713195;1192;114190;-73
2021/10/05 20:11:24;;;;;;;17.85;7.43;;;;;;;17.37;77.87;100188.45;713136;1209;115085;-73
2021/10/05 20:26:27;;;;;;;18.95;7.65;;;;;;;17.07;77.45;100183.11;712945;1203;114600;-73
2021/10/05 20:41:29;;;;;;;19.35;8.28;;;;;;;16.91;77.54;100184.09;712499;1203;115048;-73
2021/10/05 20:56:32;;;;;;;17.83;7.93;;;;;;;16.85;77.04;100191.90;712488;1204;114525;-74
2021/10/05 21:11:34;;;;;;;16.87;7.00;;;;;;;16.91;76.55;100194.69;712853;1202;114427;-73
2021/10/05 21:26:36;;;;;;;13.05;7.23;;;;;;;16.91;75.99;100189.39;712530;1180;114692;-72
2021/10/05 21:41:38;;;;;;;15.13;6.40;;;;;;;17.01;75.28;100183.02;712706;1179;114831;-72
2021/10/05 21:56:40;;;;;;;17.80;6.43;;;;;;;17.09;74.10;100196.18;712818;1203;114639;-73
2021/10/05 22:11:44;;;;;;;24.23;6.87;;;;;;;17.03;73.90;100173.88;712633;1202;114750;-73
2021/10/05 22:26:46;;;;;;;17.58;6.98;;;;;;;16.96;73.75;100175.62;712650;1179;114529;-73
2021/10/05 22:41:48;;;;;;;16.43;6.67;;;;;;;16.90;73.29;100187.73;712637;1206;115584;-74
2021/10/05 22:56:50;;;;;;;13.53;6.37;;;;;;;16.78;73.27;100173.25;712437;1202;114329;-73
2021/10/05 23:11:53;;;;;;;19.13;6.77;;;;;;;16.53;73.42;100189.32;712518;1203;115410;-73
2021/10/05 23:26:55;;;;;;;17.88;6.63;;;;;;;16.58;73.45;100192.27;712554;1203;114769;-73
2021/10/05 23:41:58;;;;;;;15.00;6.47;;;;;;;16.51;73.15;100190.50;712483;1190;114803;-73
2021/10/05 23:57:01;;;;;;;15.00;6.85;;;;;;;16.46;73.13;100191.85;712761;1205;114706;-73
